sensor_id;sensor_type;location;lat;lon;timestamp;P1;durP1;ratioP1;P2;durP2;ratioP2
77598;SDS011;66758;52.078;5.070;2023-08-01T00:01:29;6.67;;;2.47;;
77598;SDS011;66758;52.078;5.070;2023-08-01T00:03:55;6.00;;;2.20;;
77598;SDS011;66758;52.078;5.070;2023-08-01T00:06:20;5.75;;;2.25;;
77598;SDS011;66758;52.078;5.070;2023-08-01T00:08:47;6.57;;;2.63;;
77598;SDS011;66758;52.078;5.070;2023-08-01T00:11:12;6.65;;;2.38;;
77598;SDS011;66758;52.078;5.070;2023-08-01T00:13:39;6.85;;;2.33;;
77598;SDS011;66758;52.078;5.070;2023-08-01T00:16:05;5.03;;;2.57;;
77598;SDS011;66758;52.078;5.070;2023-08-01T00:18:30;6.77;;;2.63;;
77598;SDS011;66758;52.078;5.070;2023-08-01T00:20:57;4.93;;;2.37;;
77598;SDS011;66758;52.078;5.070;2023-08-01T00:23:23;7.28;;;2.70;;
77598;SDS011;66758;52.078;5.070;2023-08-01T00:25:49;5.90;;;2.20;;
77598;SDS011;66758;52.078;5.070;2023-08-01T00:28:19;10.73;;;2.53;;
77598;SDS011;66758;52.078;5.070;2023-08-01T00:30:46;4.80;;;2.53;;
77598;SDS011;66758;52.078;5.070;2023-08-01T00:33:12;6.80;;;2.77;;
77598;SDS011;66758;52.078;5.070;2023-08-01T00:35:38;7.93;;;2.55;;
77598;SDS011;66758;52.078;5.070;2023-08-01T00:38:03;6.32;;;2.70;;
77598;SDS011;66758;52.078;5.070;2023-08-01T00:40:32;6.07;;;2.50;;
77598;SDS011;66758;52.078;5.070;2023-08-01T00:42:59;5.53;;;2.60;;
77598;SDS011;66758;52.078;5.070;2023-08-01T00:45:25;6.13;;;2.90;;
77598;SDS011;66758;52.078;5.070;2023-08-01T00:47:52;6.40;;;2.55;;
77598;SDS011;66758;52.078;5.070;2023-08-01T00:50:18;7.82;;;3.05;;
77598;SDS011;66758;52.078;5.070;2023-08-01T00:52:47;5.95;;;3.10;;
77598;SDS011;66758;52.078;5.070;2023-08-01T00:55:14;10.10;;;3.05;;
77598;SDS011;66758;52.078;5.070;2023-08-01T00:57:39;5.93;;;2.53;;
77598;SDS011;66758;52.078;5.070;2023-08-01T01:00:05;8.05;;;3.40;;
77598;SDS011;66758;52.078;5.070;2023-08-01T01:02:31;5.82;;;3.20;;
77598;SDS011;66758;52.078;5.070;2023-08-01T01:04:57;7.00;;;2.87;;
77598;SDS011;66758;52.078;5.070;2023-08-01T01:07:23;8.52;;;3.45;;
77598;SDS011;66758;52.078;5.070;2023-08-01T01:09:49;11.10;;;3.30;;
77598;SDS011;66758;52.078;5.070;2023-08-01T01:12:15;8.18;;;3.50;;
77598;SDS011;66758;52.078;5.070;2023-08-01T01:14:41;8.60;;;3.83;;
77598;SDS011;66758;52.078;5.070;2023-08-01T01:17:06;10.00;;;3.35;;
77598;SDS011;66758;52.078;5.070;2023-08-01T01:19:31;8.03;;;3.73;;
77598;SDS011;66758;52.078;5.070;2023-08-01T01:21:57;9.53;;;4.07;;
77598;SDS011;66758;52.078;5.070;2023-08-01T01:24:23;7.65;;;3.70;;
77598;SDS011;66758;52.078;5.070;2023-08-01T01:26:51;9.57;;;4.07;;
77598;SDS011;66758;52.078;5.070;2023-08-01T01:29:18;9.17;;;3.67;;
77598;SDS011;66758;52.078;5.070;2023-08-01T01:31:45;8.02;;;3.28;;
77598;SDS011;66758;52.078;5.070;2023-08-01T01:34:11;9.07;;;4.15;;
77598;SDS011;66758;52.078;5.070;2023-08-01T01:36:36;8.63;;;3.13;;
77598;SDS011;66758;52.078;5.070;2023-08-01T01:39:02;6.13;;;3.53;;
77598;SDS011;66758;52.078;5.070;2023-08-01T01:41:27;7.47;;;3.67;;
77598;SDS011;66758;52.078;5.070;2023-08-01T01:43:53;10.33;;;3.77;;
77598;SDS011;66758;52.078;5.070;2023-08-01T01:46:18;9.17;;;3.20;;
77598;SDS011;66758;52.078;5.070;2023-08-01T01:48:43;8.50;;;3.50;;
77598;SDS011;66758;52.078;5.070;2023-08-01T01:51:09;9.07;;;3.70;;
77598;SDS011;66758;52.078;5.070;2023-08-01T01:53:34;9.60;;;3.60;;
77598;SDS011;66758;52.078;5.070;2023-08-01T01:56:00;9.80;;;3.40;;
77598;SDS011;66758;52.078;5.070;2023-08-01T01:58:26;8.37;;;3.93;;
77598;SDS011;66758;52.078;5.070;2023-08-01T02:00:52;8.00;;;3.78;;
77598;SDS011;66758;52.078;5.070;2023-08-01T02:03:17;7.17;;;3.63;;
77598;SDS011;66758;52.078;5.070;2023-08-01T02:05:44;8.77;;;4.30;;
77598;SDS011;66758;52.078;5.070;2023-08-01T02:08:10;10.35;;;3.45;;
77598;SDS011;66758;52.078;5.070;2023-08-01T02:10:35;11.67;;;4.70;;
77598;SDS011;66758;52.078;5.070;2023-08-01T02:13:02;9.30;;;3.60;;
77598;SDS011;66758;52.078;5.070;2023-08-01T02:15:27;11.32;;;4.30;;
77598;SDS011;66758;52.078;5.070;2023-08-01T02:17:53;11.40;;;4.50;;
77598;SDS011;66758;52.078;5.070;2023-08-01T02:20:18;9.77;;;4.07;;
77598;SDS011;66758;52.078;5.070;2023-08-01T02:22:44;9.13;;;4.63;;
77598;SDS011;66758;52.078;5.070;2023-08-01T02:25:09;11.40;;;4.07;;
77598;SDS011;66758;52.078;5.070;2023-08-01T02:27:34;12.90;;;4.63;;
77598;SDS011;66758;52.078;5.070;2023-08-01T02:30:00;9.70;;;4.00;;
77598;SDS011;66758;52.078;5.070;2023-08-01T02:32:25;10.32;;;3.72;;
77598;SDS011;66758;52.078;5.070;2023-08-01T02:34:51;9.33;;;3.93;;
77598;SDS011;66758;52.078;5.070;2023-08-01T02:37:16;12.53;;;4.53;;
77598;SDS011;66758;52.078;5.070;2023-08-01T02:39:41;8.90;;;4.07;;
77598;SDS011;66758;52.078;5.070;2023-08-01T02:42:07;12.90;;;4.68;;
77598;SDS011;66758;52.078;5.070;2023-08-01T02:44:33;14.77;;;5.83;;
77598;SDS011;66758;52.078;5.070;2023-08-01T02:46:59;11.90;;;6.70;;
77598;SDS011;66758;52.078;5.070;2023-08-01T02:49:25;15.23;;;8.50;;
77598;SDS011;66758;52.078;5.070;2023-08-01T02:51:50;19.10;;;11.37;;
77598;SDS011;66758;52.078;5.070;2023-08-01T02:54:15;15.10;;;8.10;;
77598;SDS011;66758;52.078;5.070;2023-08-01T02:56:41;14.32;;;6.07;;
77598;SDS011;66758;52.078;5.070;2023-08-01T02:59:08;15.13;;;6.73;;
77598;SDS011;66758;52.078;5.070;2023-08-01T03:01:37;12.55;;;6.35;;
77598;SDS011;66758;52.078;5.070;2023-08-01T03:04:03;15.20;;;5.90;;
77598;SDS011;66758;52.078;5.070;2023-08-01T03:06:30;11.32;;;4.43;;
77598;SDS011;66758;52.078;5.070;2023-08-01T03:08:56;11.38;;;4.97;;
77598;SDS011;66758;52.078;5.070;2023-08-01T03:11:22;10.03;;;3.90;;
77598;SDS011;66758;52.078;5.070;2023-08-01T03:13:47;11.50;;;5.20;;
77598;SDS011;66758;52.078;5.070;2023-08-01T03:16:12;11.17;;;4.43;;
77598;SDS011;66758;52.078;5.070;2023-08-01T03:18:38;10.47;;;4.13;;
77598;SDS011;66758;52.078;5.070;2023-08-01T03:21:03;10.57;;;4.27;;
77598;SDS011;66758;52.078;5.070;2023-08-01T03:23:29;8.80;;;3.55;;
77598;SDS011;66758;52.078;5.070;2023-08-01T03:25:55;10.35;;;4.30;;
77598;SDS011;66758;52.078;5.070;2023-08-01T03:28:20;10.27;;;3.27;;
77598;SDS011;66758;52.078;5.070;2023-08-01T03:30:46;9.87;;;3.13;;
77598;SDS011;66758;52.078;5.070;2023-08-01T03:33:14;9.30;;;3.42;;
77598;SDS011;66758;52.078;5.070;2023-08-01T03:35:40;8.18;;;3.13;;
77598;SDS011;66758;52.078;5.070;2023-08-01T03:38:06;7.50;;;2.93;;
77598;SDS011;66758;52.078;5.070;2023-08-01T03:40:32;11.37;;;3.43;;
77598;SDS011;66758;52.078;5.070;2023-08-01T03:42:58;9.82;;;3.80;;
77598;SDS011;66758;52.078;5.070;2023-08-01T03:45:24;13.87;;;4.13;;
77598;SDS011;66758;52.078;5.070;2023-08-01T03:47:49;6.90;;;3.55;;
77598;SDS011;66758;52.078;5.070;2023-08-01T03:50:15;11.80;;;3.63;;
77598;SDS011;66758;52.078;5.070;2023-08-01T03:52:40;12.63;;;4.13;;
77598;SDS011;66758;52.078;5.070;2023-08-01T03:55:06;11.23;;;4.45;;
77598;SDS011;66758;52.078;5.070;2023-08-01T03:57:31;11.93;;;3.90;;
77598;SDS011;66758;52.078;5.070;2023-08-01T03:59:59;9.52;;;4.07;;
77598;SDS011;66758;52.078;5.070;2023-08-01T04:02:24;10.32;;;4.40;;
77598;SDS011;66758;52.078;5.070;2023-08-01T04:04:50;10.33;;;4.00;;
77598;SDS011;66758;52.078;5.070;2023-08-01T04:07:15;11.33;;;4.40;;
77598;SDS011;66758;52.078;5.070;2023-08-01T04:09:41;8.40;;;3.80;;
77598;SDS011;66758;52.078;5.070;2023-08-01T04:12:06;16.10;;;4.53;;
77598;SDS011;66758;52.078;5.070;2023-08-01T04:14:32;9.93;;;4.07;;
77598;SDS011;66758;52.078;5.070;2023-08-01T04:16:58;13.73;;;4.38;;
77598;SDS011;66758;52.078;5.070;2023-08-01T04:19:24;10.43;;;4.40;;
77598;SDS011;66758;52.078;5.070;2023-08-01T04:21:50;8.83;;;3.50;;
77598;SDS011;66758;52.078;5.070;2023-08-01T04:24:15;16.23;;;5.20;;
77598;SDS011;66758;52.078;5.070;2023-08-01T04:26:41;14.80;;;5.10;;
77598;SDS011;66758;52.078;5.070;2023-08-01T04:29:06;15.67;;;4.13;;
77598;SDS011;66758;52.078;5.070;2023-08-01T04:31:31;20.08;;;4.85;;
77598;SDS011;66758;52.078;5.070;2023-08-01T04:33:57;11.03;;;4.17;;
77598;SDS011;66758;52.078;5.070;2023-08-01T04:36:22;12.73;;;4.63;;
77598;SDS011;66758;52.078;5.070;2023-08-01T04:38:48;10.53;;;4.57;;
77598;SDS011;66758;52.078;5.070;2023-08-01T04:41:13;10.93;;;3.88;;
77598;SDS011;66758;52.078;5.070;2023-08-01T04:43:39;12.53;;;4.03;;
77598;SDS011;66758;52.078;5.070;2023-08-01T04:46:04;13.57;;;4.40;;
77598;SDS011;66758;52.078;5.070;2023-08-01T04:48:29;12.40;;;3.83;;
77598;SDS011;66758;52.078;5.070;2023-08-01T04:50:55;13.27;;;4.43;;
77598;SDS011;66758;52.078;5.070;2023-08-01T04:53:20;11.10;;;3.20;;
77598;SDS011;66758;52.078;5.070;2023-08-01T04:55:46;9.57;;;3.60;;
77598;SDS011;66758;52.078;5.070;2023-08-01T04:58:11;11.93;;;4.10;;
77598;SDS011;66758;52.078;5.070;2023-08-01T05:00:37;11.77;;;4.13;;
77598;SDS011;66758;52.078;5.070;2023-08-01T05:03:03;14.20;;;3.77;;
77598;SDS011;66758;52.078;5.070;2023-08-01T05:05:28;16.25;;;4.03;;
77598;SDS011;66758;52.078;5.070;2023-08-01T05:07:53;11.43;;;4.00;;
77598;SDS011;66758;52.078;5.070;2023-08-01T05:10:19;9.03;;;3.27;;
77598;SDS011;66758;52.078;5.070;2023-08-01T05:12:44;15.17;;;4.17;;
77598;SDS011;66758;52.078;5.070;2023-08-01T05:15:10;10.68;;;3.78;;
77598;SDS011;66758;52.078;5.070;2023-08-01T05:17:35;12.77;;;3.73;;
77598;SDS011;66758;52.078;5.070;2023-08-01T05:20:01;14.67;;;4.30;;
77598;SDS011;66758;52.078;5.070;2023-08-01T05:22:29;8.23;;;3.70;;
77598;SDS011;66758;52.078;5.070;2023-08-01T05:24:54;9.30;;;3.53;;
77598;SDS011;66758;52.078;5.070;2023-08-01T05:27:20;12.03;;;3.90;;
77598;SDS011;66758;52.078;5.070;2023-08-01T05:29:45;10.40;;;3.47;;
77598;SDS011;66758;52.078;5.070;2023-08-01T05:32:10;10.43;;;3.73;;
77598;SDS011;66758;52.078;5.070;2023-08-01T05:34:36;12.38;;;3.67;;
77598;SDS011;66758;52.078;5.070;2023-08-01T05:37:01;11.37;;;3.53;;
77598;SDS011;66758;52.078;5.070;2023-08-01T05:39:27;10.30;;;2.83;;
77598;SDS011;66758;52.078;5.070;2023-08-01T05:41:53;9.40;;;3.08;;
77598;SDS011;66758;52.078;5.070;2023-08-01T05:44:18;8.87;;;3.20;;
77598;SDS011;66758;52.078;5.070;2023-08-01T05:46:44;11.07;;;3.63;;
77598;SDS011;66758;52.078;5.070;2023-08-01T05:49:09;10.82;;;3.33;;
77598;SDS011;66758;52.078;5.070;2023-08-01T05:51:34;14.10;;;3.23;;
77598;SDS011;66758;52.078;5.070;2023-08-01T05:54:00;6.73;;;3.00;;
77598;SDS011;66758;52.078;5.070;2023-08-01T05:56:25;12.20;;;3.70;;
77598;SDS011;66758;52.078;5.070;2023-08-01T05:58:51;7.50;;;2.90;;
77598;SDS011;66758;52.078;5.070;2023-08-01T06:01:16;11.67;;;2.73;;
77598;SDS011;66758;52.078;5.070;2023-08-01T06:03:42;12.55;;;3.35;;
77598;SDS011;66758;52.078;5.070;2023-08-01T06:06:08;12.17;;;3.17;;
77598;SDS011;66758;52.078;5.070;2023-08-01T06:08:35;10.03;;;3.13;;
77598;SDS011;66758;52.078;5.070;2023-08-01T06:11:00;10.50;;;3.78;;
77598;SDS011;66758;52.078;5.070;2023-08-01T06:13:26;8.57;;;2.67;;
77598;SDS011;66758;52.078;5.070;2023-08-01T06:15:52;9.35;;;3.17;;
77598;SDS011;66758;52.078;5.070;2023-08-01T06:18:17;9.30;;;3.42;;
77598;SDS011;66758;52.078;5.070;2023-08-01T06:20:43;7.03;;;2.37;;
77598;SDS011;66758;52.078;5.070;2023-08-01T06:23:08;14.53;;;3.03;;
77598;SDS011;66758;52.078;5.070;2023-08-01T06:25:33;8.52;;;2.75;;
77598;SDS011;66758;52.078;5.070;2023-08-01T06:27:59;7.83;;;2.87;;
77598;SDS011;66758;52.078;5.070;2023-08-01T06:30:25;7.90;;;2.70;;
77598;SDS011;66758;52.078;5.070;2023-08-01T06:32:51;12.10;;;3.40;;
77598;SDS011;66758;52.078;5.070;2023-08-01T06:35:16;14.03;;;3.80;;
77598;SDS011;66758;52.078;5.070;2023-08-01T06:37:41;7.60;;;2.97;;
77598;SDS011;66758;52.078;5.070;2023-08-01T06:40:07;8.48;;;2.53;;
77598;SDS011;66758;52.078;5.070;2023-08-01T06:42:33;12.93;;;3.57;;
77598;SDS011;66758;52.078;5.070;2023-08-01T06:44:59;7.82;;;2.33;;
77598;SDS011;66758;52.078;5.070;2023-08-01T06:47:24;13.47;;;3.10;;
77598;SDS011;66758;52.078;5.070;2023-08-01T06:49:56;6.87;;;2.50;;
77598;SDS011;66758;52.078;5.070;2023-08-01T06:52:21;8.15;;;3.20;;
77598;SDS011;66758;52.078;5.070;2023-08-01T06:54:47;11.00;;;2.93;;
77598;SDS011;66758;52.078;5.070;2023-08-01T06:57:12;9.57;;;2.40;;
77598;SDS011;66758;52.078;5.070;2023-08-01T06:59:39;8.07;;;2.42;;
77598;SDS011;66758;52.078;5.070;2023-08-01T07:02:05;7.17;;;2.03;;
77598;SDS011;66758;52.078;5.070;2023-08-01T07:04:31;8.02;;;2.13;;
77598;SDS011;66758;52.078;5.070;2023-08-01T07:06:57;9.97;;;2.17;;
77598;SDS011;66758;52.078;5.070;2023-08-01T07:09:22;11.30;;;2.63;;
77598;SDS011;66758;52.078;5.070;2023-08-01T07:11:48;8.68;;;2.50;;
77598;SDS011;66758;52.078;5.070;2023-08-01T07:14:14;7.37;;;2.10;;
77598;SDS011;66758;52.078;5.070;2023-08-01T07:16:40;6.65;;;2.30;;
77598;SDS011;66758;52.078;5.070;2023-08-01T07:19:05;8.33;;;1.70;;
77598;SDS011;66758;52.078;5.070;2023-08-01T07:21:31;9.87;;;2.17;;
77598;SDS011;66758;52.078;5.070;2023-08-01T07:23:56;3.93;;;1.67;;
77598;SDS011;66758;52.078;5.070;2023-08-01T07:26:22;4.35;;;2.08;;
77598;SDS011;66758;52.078;5.070;2023-08-01T07:28:48;7.55;;;2.03;;
77598;SDS011;66758;52.078;5.070;2023-08-01T07:31:13;12.60;;;2.67;;
77598;SDS011;66758;52.078;5.070;2023-08-01T07:33:39;6.33;;;2.33;;
77598;SDS011;66758;52.078;5.070;2023-08-01T07:36:04;7.70;;;2.17;;
77598;SDS011;66758;52.078;5.070;2023-08-01T07:38:30;9.90;;;2.93;;
77598;SDS011;66758;52.078;5.070;2023-08-01T07:41:01;8.60;;;3.42;;
77598;SDS011;66758;52.078;5.070;2023-08-01T07:43:29;9.35;;;2.97;;
77598;SDS011;66758;52.078;5.070;2023-08-01T07:45:55;9.10;;;2.27;;
77598;SDS011;66758;52.078;5.070;2023-08-01T07:48:21;9.32;;;2.70;;
77598;SDS011;66758;52.078;5.070;2023-08-01T07:50:47;7.93;;;2.57;;
77598;SDS011;66758;52.078;5.070;2023-08-01T07:53:12;9.68;;;2.08;;
77598;SDS011;66758;52.078;5.070;2023-08-01T07:55:38;6.27;;;1.80;;
77598;SDS011;66758;52.078;5.070;2023-08-01T07:58:03;5.00;;;2.07;;
77598;SDS011;66758;52.078;5.070;2023-08-01T08:00:29;8.15;;;2.22;;
77598;SDS011;66758;52.078;5.070;2023-08-01T08:02:54;9.20;;;2.40;;
77598;SDS011;66758;52.078;5.070;2023-08-01T08:05:20;6.33;;;1.87;;
77598;SDS011;66758;52.078;5.070;2023-08-01T08:07:45;5.90;;;2.00;;
77598;SDS011;66758;52.078;5.070;2023-08-01T08:10:10;6.30;;;1.70;;
77598;SDS011;66758;52.078;5.070;2023-08-01T08:12:36;7.37;;;1.93;;
77598;SDS011;66758;52.078;5.070;2023-08-01T08:15:01;7.27;;;1.80;;
77598;SDS011;66758;52.078;5.070;2023-08-01T08:17:27;6.65;;;1.75;;
77598;SDS011;66758;52.078;5.070;2023-08-01T08:19:53;4.60;;;1.63;;
77598;SDS011;66758;52.078;5.070;2023-08-01T08:22:18;6.75;;;1.83;;
77598;SDS011;66758;52.078;5.070;2023-08-01T08:24:44;9.00;;;2.33;;
77598;SDS011;66758;52.078;5.070;2023-08-01T08:27:09;5.53;;;1.60;;
77598;SDS011;66758;52.078;5.070;2023-08-01T08:29:34;5.93;;;1.70;;
77598;SDS011;66758;52.078;5.070;2023-08-01T08:32:00;7.30;;;2.30;;
77598;SDS011;66758;52.078;5.070;2023-08-01T08:34:25;6.90;;;1.97;;
77598;SDS011;66758;52.078;5.070;2023-08-01T08:36:51;7.10;;;1.77;;
77598;SDS011;66758;52.078;5.070;2023-08-01T08:39:18;7.10;;;1.92;;
77598;SDS011;66758;52.078;5.070;2023-08-01T08:41:47;4.33;;;1.70;;
77598;SDS011;66758;52.078;5.070;2023-08-01T08:44:17;5.95;;;1.35;;
77598;SDS011;66758;52.078;5.070;2023-08-01T08:46:49;8.32;;;2.65;;
77598;SDS011;66758;52.078;5.070;2023-08-01T08:49:16;7.95;;;1.60;;
77598;SDS011;66758;52.078;5.070;2023-08-01T08:51:45;3.88;;;1.50;;
77598;SDS011;66758;52.078;5.070;2023-08-01T08:54:10;5.37;;;1.30;;
77598;SDS011;66758;52.078;5.070;2023-08-01T08:56:36;4.38;;;1.45;;
77598;SDS011;66758;52.078;5.070;2023-08-01T08:59:03;5.05;;;1.10;;
77598;SDS011;66758;52.078;5.070;2023-08-01T09:01:29;4.57;;;1.80;;
77598;SDS011;66758;52.078;5.070;2023-08-01T09:03:57;6.35;;;1.92;;
77598;SDS011;66758;52.078;5.070;2023-08-01T09:06:30;8.07;;;1.73;;
77598;SDS011;66758;52.078;5.070;2023-08-01T09:09:02;5.33;;;1.70;;
77598;SDS011;66758;52.078;5.070;2023-08-01T09:11:55;6.47;;;1.60;;
77598;SDS011;66758;52.078;5.070;2023-08-01T09:14:21;5.47;;;1.85;;
77598;SDS011;66758;52.078;5.070;2023-08-01T09:16:47;5.90;;;1.60;;
77598;SDS011;66758;52.078;5.070;2023-08-01T09:19:17;5.10;;;1.70;;
77598;SDS011;66758;52.078;5.070;2023-08-01T09:21:47;6.22;;;1.63;;
77598;SDS011;66758;52.078;5.070;2023-08-01T09:24:14;8.63;;;1.70;;
77598;SDS011;66758;52.078;5.070;2023-08-01T09:26:40;5.30;;;1.50;;
77598;SDS011;66758;52.078;5.070;2023-08-01T09:29:07;7.17;;;2.00;;
77598;SDS011;66758;52.078;5.070;2023-08-01T09:31:34;7.43;;;2.28;;
77598;SDS011;66758;52.078;5.070;2023-08-01T09:34:01;6.43;;;1.80;;
77598;SDS011;66758;52.078;5.070;2023-08-01T09:36:30;7.28;;;1.67;;
77598;SDS011;66758;52.078;5.070;2023-08-01T09:38:59;4.43;;;1.60;;
77598;SDS011;66758;52.078;5.070;2023-08-01T09:41:26;5.45;;;1.75;;
77598;SDS011;66758;52.078;5.070;2023-08-01T09:43:53;8.90;;;2.28;;
77598;SDS011;66758;52.078;5.070;2023-08-01T09:46:18;8.07;;;1.63;;
77598;SDS011;66758;52.078;5.070;2023-08-01T09:48:44;4.82;;;1.75;;
77598;SDS011;66758;52.078;5.070;2023-08-01T09:51:13;4.07;;;1.77;;
77598;SDS011;66758;52.078;5.070;2023-08-01T09:54:13;7.40;;;1.67;;
77598;SDS011;66758;52.078;5.070;2023-08-01T09:56:31;7.68;;;2.17;;
77598;SDS011;66758;52.078;5.070;2023-08-01T09:58:57;4.30;;;1.40;;
77598;SDS011;66758;52.078;5.070;2023-08-01T10:01:25;4.88;;;1.60;;
77598;SDS011;66758;52.078;5.070;2023-08-01T10:03:52;4.10;;;1.90;;
77598;SDS011;66758;52.078;5.070;2023-08-01T10:06:19;4.75;;;2.10;;
77598;SDS011;66758;52.078;5.070;2023-08-01T10:08:46;6.93;;;1.73;;
77598;SDS011;66758;52.078;5.070;2023-08-01T10:11:12;4.70;;;1.20;;
77598;SDS011;66758;52.078;5.070;2023-08-01T10:13:41;4.93;;;1.55;;
77598;SDS011;66758;52.078;5.070;2023-08-01T10:16:08;8.45;;;1.80;;
77598;SDS011;66758;52.078;5.070;2023-08-01T10:18:33;4.20;;;1.47;;
77598;SDS011;66758;52.078;5.070;2023-08-01T10:21:02;5.80;;;1.27;;
77598;SDS011;66758;52.078;5.070;2023-08-01T10:23:29;4.95;;;1.50;;
77598;SDS011;66758;52.078;5.070;2023-08-01T10:25:55;5.78;;;1.38;;
77598;SDS011;66758;52.078;5.070;2023-08-01T10:28:30;3.90;;;1.33;;
77598;SDS011;66758;52.078;5.070;2023-08-01T10:31:06;3.70;;;1.30;;
77598;SDS011;66758;52.078;5.070;2023-08-01T10:33:42;7.28;;;1.85;;
77598;SDS011;66758;52.078;5.070;2023-08-01T10:36:20;7.00;;;2.05;;
77598;SDS011;66758;52.078;5.070;2023-08-01T10:38:50;4.30;;;1.25;;
77598;SDS011;66758;52.078;5.070;2023-08-01T10:41:27;8.10;;;1.92;;
77598;SDS011;66758;52.078;5.070;2023-08-01T10:44:12;6.97;;;1.93;;
77598;SDS011;66758;52.078;5.070;2023-08-01T10:46:46;5.50;;;1.75;;
77598;SDS011;66758;52.078;5.070;2023-08-01T10:49:13;5.32;;;1.27;;
77598;SDS011;66758;52.078;5.070;2023-08-01T10:51:39;4.60;;;1.27;;
77598;SDS011;66758;52.078;5.070;2023-08-01T10:54:05;7.87;;;2.17;;
77598;SDS011;66758;52.078;5.070;2023-08-01T10:56:30;5.43;;;1.73;;
77598;SDS011;66758;52.078;5.070;2023-08-01T10:58:57;5.70;;;1.70;;
77598;SDS011;66758;52.078;5.070;2023-08-01T11:01:23;6.32;;;2.20;;
77598;SDS011;66758;52.078;5.070;2023-08-01T11:03:48;4.32;;;1.60;;
77598;SDS011;66758;52.078;5.070;2023-08-01T11:06:15;3.37;;;1.63;;
77598;SDS011;66758;52.078;5.070;2023-08-01T11:08:41;5.28;;;1.65;;
77598;SDS011;66758;52.078;5.070;2023-08-01T11:11:10;4.50;;;1.30;;
77598;SDS011;66758;52.078;5.070;2023-08-01T11:13:38;5.65;;;1.33;;
77598;SDS011;66758;52.078;5.070;2023-08-01T11:16:03;5.18;;;2.00;;
77598;SDS011;66758;52.078;5.070;2023-08-01T11:18:39;3.87;;;1.40;;
77598;SDS011;66758;52.078;5.070;2023-08-01T11:21:09;4.50;;;1.70;;
77598;SDS011;66758;52.078;5.070;2023-08-01T11:23:34;4.38;;;1.48;;
77598;SDS011;66758;52.078;5.070;2023-08-01T11:26:01;5.95;;;1.60;;
77598;SDS011;66758;52.078;5.070;2023-08-01T11:28:32;9.13;;;2.80;;
77598;SDS011;66758;52.078;5.070;2023-08-01T11:30:57;7.40;;;2.10;;
77598;SDS011;66758;52.078;5.070;2023-08-01T11:33:23;3.80;;;1.30;;
77598;SDS011;66758;52.078;5.070;2023-08-01T11:35:52;5.23;;;1.30;;
77598;SDS011;66758;52.078;5.070;2023-08-01T11:38:22;4.75;;;1.45;;
77598;SDS011;66758;52.078;5.070;2023-08-01T11:40:50;5.97;;;2.00;;
77598;SDS011;66758;52.078;5.070;2023-08-01T11:43:16;5.18;;;1.80;;
77598;SDS011;66758;52.078;5.070;2023-08-01T11:45:48;4.93;;;2.00;;
77598;SDS011;66758;52.078;5.070;2023-08-01T11:48:32;6.47;;;1.92;;
77598;SDS011;66758;52.078;5.070;2023-08-01T11:50:58;4.93;;;1.70;;
77598;SDS011;66758;52.078;5.070;2023-08-01T11:53:24;5.93;;;1.55;;
77598;SDS011;66758;52.078;5.070;2023-08-01T11:55:50;5.88;;;1.85;;
77598;SDS011;66758;52.078;5.070;2023-08-01T11:58:32;6.80;;;1.57;;
77598;SDS011;66758;52.078;5.070;2023-08-01T12:01:09;3.95;;;1.63;;
77598;SDS011;66758;52.078;5.070;2023-08-01T12:03:47;5.80;;;1.70;;
77598;SDS011;66758;52.078;5.070;2023-08-01T12:06:20;5.53;;;2.45;;
77598;SDS011;66758;52.078;5.070;2023-08-01T12:08:48;5.85;;;1.95;;
77598;SDS011;66758;52.078;5.070;2023-08-01T12:11:26;5.83;;;1.20;;
77598;SDS011;66758;52.078;5.070;2023-08-01T12:14:13;9.30;;;1.90;;
77598;SDS011;66758;52.078;5.070;2023-08-01T12:16:40;5.30;;;2.20;;
77598;SDS011;66758;52.078;5.070;2023-08-01T12:19:07;6.68;;;1.40;;
77598;SDS011;66758;52.078;5.070;2023-08-01T12:21:34;5.18;;;1.45;;
77598;SDS011;66758;52.078;5.070;2023-08-01T12:24:00;9.03;;;1.47;;
77598;SDS011;66758;52.078;5.070;2023-08-01T12:26:26;5.72;;;1.20;;
77598;SDS011;66758;52.078;5.070;2023-08-01T12:28:51;5.57;;;1.55;;
77598;SDS011;66758;52.078;5.070;2023-08-01T12:31:18;5.07;;;1.47;;
77598;SDS011;66758;52.078;5.070;2023-08-01T12:33:44;4.10;;;1.67;;
77598;SDS011;66758;52.078;5.070;2023-08-01T12:36:11;5.80;;;1.30;;
77598;SDS011;66758;52.078;5.070;2023-08-01T12:38:36;6.25;;;1.45;;
77598;SDS011;66758;52.078;5.070;2023-08-01T12:41:02;6.77;;;1.30;;
77598;SDS011;66758;52.078;5.070;2023-08-01T12:43:27;5.10;;;1.37;;
77598;SDS011;66758;52.078;5.070;2023-08-01T12:45:53;4.13;;;1.65;;
77598;SDS011;66758;52.078;5.070;2023-08-01T12:48:20;5.57;;;1.50;;
77598;SDS011;66758;52.078;5.070;2023-08-01T12:50:47;4.55;;;1.50;;
77598;SDS011;66758;52.078;5.070;2023-08-01T12:53:13;3.25;;;1.48;;
77598;SDS011;66758;52.078;5.070;2023-08-01T12:55:42;6.57;;;2.00;;
77598;SDS011;66758;52.078;5.070;2023-08-01T12:58:20;4.90;;;1.60;;
77598;SDS011;66758;52.078;5.070;2023-08-01T13:00:45;6.53;;;1.40;;
77598;SDS011;66758;52.078;5.070;2023-08-01T13:03:11;7.40;;;1.23;;
77598;SDS011;66758;52.078;5.070;2023-08-01T13:05:38;3.80;;;1.30;;
77598;SDS011;66758;52.078;5.070;2023-08-01T13:08:04;5.10;;;1.20;;
77598;SDS011;66758;52.078;5.070;2023-08-01T13:10:30;3.97;;;1.33;;
77598;SDS011;66758;52.078;5.070;2023-08-01T13:12:57;4.60;;;1.52;;
77598;SDS011;66758;52.078;5.070;2023-08-01T13:15:22;5.13;;;1.50;;
77598;SDS011;66758;52.078;5.070;2023-08-01T13:17:48;5.15;;;1.70;;
77598;SDS011;66758;52.078;5.070;2023-08-01T13:20:14;5.63;;;2.00;;
77598;SDS011;66758;52.078;5.070;2023-08-01T13:22:39;4.17;;;1.23;;
77598;SDS011;66758;52.078;5.070;2023-08-01T13:25:05;5.23;;;1.43;;
77598;SDS011;66758;52.078;5.070;2023-08-01T13:27:31;7.20;;;1.40;;
77598;SDS011;66758;52.078;5.070;2023-08-01T13:29:58;5.13;;;1.55;;
77598;SDS011;66758;52.078;5.070;2023-08-01T13:32:24;4.20;;;1.50;;
77598;SDS011;66758;52.078;5.070;2023-08-01T13:34:49;3.80;;;1.77;;
77598;SDS011;66758;52.078;5.070;2023-08-01T13:37:15;4.50;;;1.27;;
77598;SDS011;66758;52.078;5.070;2023-08-01T13:39:40;5.23;;;1.70;;
77598;SDS011;66758;52.078;5.070;2023-08-01T13:42:06;5.70;;;1.80;;
77598;SDS011;66758;52.078;5.070;2023-08-01T13:44:31;7.32;;;1.73;;
77598;SDS011;66758;52.078;5.070;2023-08-01T13:46:58;4.18;;;1.50;;
77598;SDS011;66758;52.078;5.070;2023-08-01T13:49:23;5.47;;;1.70;;
77598;SDS011;66758;52.078;5.070;2023-08-01T13:51:49;7.27;;;1.47;;
77598;SDS011;66758;52.078;5.070;2023-08-01T13:54:14;6.43;;;1.58;;
77598;SDS011;66758;52.078;5.070;2023-08-01T13:56:40;3.80;;;1.30;;
77598;SDS011;66758;52.078;5.070;2023-08-01T13:59:06;5.15;;;1.63;;
77598;SDS011;66758;52.078;5.070;2023-08-01T14:01:31;4.10;;;1.53;;
77598;SDS011;66758;52.078;5.070;2023-08-01T14:03:57;5.43;;;1.83;;
77598;SDS011;66758;52.078;5.070;2023-08-01T14:06:23;5.97;;;1.40;;
77598;SDS011;66758;52.078;5.070;2023-08-01T14:08:48;5.13;;;1.63;;
77598;SDS011;66758;52.078;5.070;2023-08-01T14:11:14;6.30;;;1.30;;
77598;SDS011;66758;52.078;5.070;2023-08-01T14:13:39;5.20;;;1.27;;
77598;SDS011;66758;52.078;5.070;2023-08-01T14:16:04;5.10;;;1.60;;
77598;SDS011;66758;52.078;5.070;2023-08-01T14:18:30;4.77;;;2.03;;
77598;SDS011;66758;52.078;5.070;2023-08-01T14:20:55;7.07;;;1.50;;
77598;SDS011;66758;52.078;5.070;2023-08-01T14:23:21;6.57;;;1.48;;
77598;SDS011;66758;52.078;5.070;2023-08-01T14:25:47;5.80;;;1.85;;
77598;SDS011;66758;52.078;5.070;2023-08-01T14:28:13;5.37;;;1.93;;
77598;SDS011;66758;52.078;5.070;2023-08-01T14:30:39;6.75;;;1.85;;
77598;SDS011;66758;52.078;5.070;2023-08-01T14:33:08;5.93;;;1.47;;
77598;SDS011;66758;52.078;5.070;2023-08-01T14:35:34;3.25;;;1.90;;
77598;SDS011;66758;52.078;5.070;2023-08-01T14:38:00;5.57;;;1.83;;
77598;SDS011;66758;52.078;5.070;2023-08-01T14:40:25;5.40;;;1.20;;
77598;SDS011;66758;52.078;5.070;2023-08-01T14:42:51;8.27;;;1.65;;